sensor_id;sensor_type;location;lat;lon;timestamp;P1;durP1;ratioP1;P2;durP2;ratioP2
297;SDS011;133;49.626;9.680;2022-09-21T00:00:31;4.03;;;3.77;;
297;SDS011;133;49.626;9.680;2022-09-21T00:02:57;7.90;;;4.03;;
297;SDS011;133;49.626;9.680;2022-09-21T00:05:23;3.60;;;3.40;;
297;SDS011;133;49.626;9.680;2022-09-21T00:07:49;4.03;;;3.83;;
297;SDS011;133;49.626;9.680;2022-09-21T00:10:16;4.67;;;3.30;;
297;SDS011;133;49.626;9.680;2022-09-21T00:12:44;4.27;;;3.60;;
297;SDS011;133;49.626;9.680;2022-09-21T00:15:12;7.40;;;3.60;;
297;SDS011;133;49.626;9.680;2022-09-21T00:17:38;3.63;;;3.43;;
297;SDS011;133;49.626;9.680;2022-09-21T00:20:04;3.60;;;3.40;;
297;SDS011;133;49.626;9.680;2022-09-21T00:22:30;5.13;;;3.50;;
297;SDS011;133;49.626;9.680;2022-09-21T00:24:56;5.40;;;4.33;;
297;SDS011;133;49.626;9.680;2022-09-21T00:27:22;6.80;;;4.60;;
297;SDS011;133;49.626;9.680;2022-09-21T00:29:54;10.20;;;4.80;;
297;SDS011;133;49.626;9.680;2022-09-21T00:32:20;7.53;;;4.70;;
297;SDS011;133;49.626;9.680;2022-09-21T00:34:46;10.20;;;5.67;;
297;SDS011;133;49.626;9.680;2022-09-21T00:37:11;6.70;;;4.40;;
297;SDS011;133;49.626;9.680;2022-09-21T00:39:37;20.17;;;5.50;;
297;SDS011;133;49.626;9.680;2022-09-21T00:42:08;9.13;;;5.50;;
297;SDS011;133;49.626;9.680;2022-09-21T00:44:34;31.87;;;7.10;;
297;SDS011;133;49.626;9.680;2022-09-21T00:47:08;9.07;;;4.50;;
297;SDS011;133;49.626;9.680;2022-09-21T00:49:37;19.80;;;6.20;;
297;SDS011;133;49.626;9.680;2022-09-21T00:52:05;16.70;;;6.67;;
297;SDS011;133;49.626;9.680;2022-09-21T00:54:35;32.47;;;7.07;;
297;SDS011;133;49.626;9.680;2022-09-21T00:57:05;12.37;;;6.43;;
297;SDS011;133;49.626;9.680;2022-09-21T00:59:33;12.23;;;6.73;;
297;SDS011;133;49.626;9.680;2022-09-21T01:02:01;14.90;;;7.27;;
297;SDS011;133;49.626;9.680;2022-09-21T01:04:28;14.13;;;5.83;;
297;SDS011;133;49.626;9.680;2022-09-21T01:06:55;8.10;;;5.23;;
297;SDS011;133;49.626;9.680;2022-09-21T01:09:22;7.90;;;5.53;;
297;SDS011;133;49.626;9.680;2022-09-21T01:17:29;12.53;;;4.93;;
297;SDS011;133;49.626;9.680;2022-09-21T01:23:04;7.10;;;5.40;;
297;SDS011;133;49.626;9.680;2022-09-21T01:31:34;21.13;;;6.60;;
297;SDS011;133;49.626;9.680;2022-09-21T01:34:36;32.57;;;6.00;;
297;SDS011;133;49.626;9.680;2022-09-21T01:37:07;15.43;;;6.20;;
297;SDS011;133;49.626;9.680;2022-09-21T01:39:37;11.23;;;5.53;;
297;SDS011;133;49.626;9.680;2022-09-21T01:42:06;31.60;;;6.53;;
297;SDS011;133;49.626;9.680;2022-09-21T01:44:32;6.63;;;5.03;;
297;SDS011;133;49.626;9.680;2022-09-21T01:47:02;5.13;;;4.43;;
297;SDS011;133;49.626;9.680;2022-09-21T01:49:38;7.43;;;4.70;;
297;SDS011;133;49.626;9.680;2022-09-21T01:52:11;5.00;;;4.73;;
297;SDS011;133;49.626;9.680;2022-09-21T01:54:46;19.43;;;5.13;;
297;SDS011;133;49.626;9.680;2022-09-21T01:57:21;51.37;;;6.73;;
297;SDS011;133;49.626;9.680;2022-09-21T02:00:09;58.77;;;7.27;;
297;SDS011;133;49.626;9.680;2022-09-21T02:02:37;44.37;;;6.70;;
297;SDS011;133;49.626;9.680;2022-09-21T02:05:09;11.07;;;5.03;;
297;SDS011;133;49.626;9.680;2022-09-21T02:07:36;8.83;;;5.20;;
297;SDS011;133;49.626;9.680;2022-09-21T02:10:03;7.50;;;4.50;;
297;SDS011;133;49.626;9.680;2022-09-21T02:12:31;24.67;;;5.10;;
297;SDS011;133;49.626;9.680;2022-09-21T02:14:57;16.43;;;5.03;;
297;SDS011;133;49.626;9.680;2022-09-21T02:17:45;107.83;;;9.30;;
297;SDS011;133;49.626;9.680;2022-09-21T02:20:23;4.73;;;4.43;;
297;SDS011;133;49.626;9.680;2022-09-21T02:23:04;16.80;;;5.53;;
297;SDS011;133;49.626;9.680;2022-09-21T02:25:58;31.17;;;5.47;;
297;SDS011;133;49.626;9.680;2022-09-21T02:36:42;80.93;;;8.20;;
297;SDS011;133;49.626;9.680;2022-09-21T02:42:24;13.57;;;4.53;;
297;SDS011;133;49.626;9.680;2022-09-21T02:47:37;9.27;;;5.00;;
297;SDS011;133;49.626;9.680;2022-09-21T02:50:14;62.07;;;6.60;;
297;SDS011;133;49.626;9.680;2022-09-21T02:52:47;36.97;;;6.17;;
297;SDS011;133;49.626;9.680;2022-09-21T02:55:13;4.97;;;4.67;;
297;SDS011;133;49.626;9.680;2022-09-21T02:57:41;10.20;;;4.83;;
297;SDS011;133;49.626;9.680;2022-09-21T03:00:09;5.67;;;4.83;;
297;SDS011;133;49.626;9.680;2022-09-21T03:02:36;12.90;;;4.53;;
297;SDS011;133;49.626;9.680;2022-09-21T03:05:02;4.40;;;4.10;;
297;SDS011;133;49.626;9.680;2022-09-21T03:07:28;58.70;;;5.80;;
297;SDS011;133;49.626;9.680;2022-09-21T03:09:54;5.83;;;3.60;;
297;SDS011;133;49.626;9.680;2022-09-21T03:12:19;37.40;;;5.30;;
297;SDS011;133;49.626;9.680;2022-09-21T03:14:46;6.77;;;3.70;;
297;SDS011;133;49.626;9.680;2022-09-21T03:17:11;49.87;;;6.47;;
297;SDS011;133;49.626;9.680;2022-09-21T03:19:37;75.47;;;7.37;;
297;SDS011;133;49.626;9.680;2022-09-21T03:22:02;3.37;;;3.23;;
297;SDS011;133;49.626;9.680;2022-09-21T03:24:28;5.27;;;4.07;;
297;SDS011;133;49.626;9.680;2022-09-21T03:27:09;61.50;;;6.40;;
297;SDS011;133;49.626;9.680;2022-09-21T03:29:35;6.03;;;3.53;;
297;SDS011;133;49.626;9.680;2022-09-21T03:32:00;31.57;;;5.67;;
297;SDS011;133;49.626;9.680;2022-09-21T03:34:27;10.53;;;4.93;;
297;SDS011;133;49.626;9.680;2022-09-21T03:36:52;43.07;;;5.90;;
297;SDS011;133;49.626;9.680;2022-09-21T03:39:18;188.47;;;11.93;;
297;SDS011;133;49.626;9.680;2022-09-21T03:41:43;60.63;;;6.83;;
297;SDS011;133;49.626;9.680;2022-09-21T03:44:09;55.47;;;7.23;;
297;SDS011;133;49.626;9.680;2022-09-21T03:46:34;6.20;;;4.47;;
297;SDS011;133;49.626;9.680;2022-09-21T03:49:00;8.30;;;4.20;;
297;SDS011;133;49.626;9.680;2022-09-21T03:51:27;14.00;;;4.03;;
297;SDS011;133;49.626;9.680;2022-09-21T03:53:55;11.97;;;5.07;;
297;SDS011;133;49.626;9.680;2022-09-21T03:56:21;3.60;;;3.40;;
297;SDS011;133;49.626;9.680;2022-09-21T03:58:46;30.67;;;4.87;;
297;SDS011;133;49.626;9.680;2022-09-21T04:01:12;9.03;;;4.47;;
297;SDS011;133;49.626;9.680;2022-09-21T04:03:38;3.83;;;3.70;;
297;SDS011;133;49.626;9.680;2022-09-21T04:06:10;46.40;;;5.10;;
297;SDS011;133;49.626;9.680;2022-09-21T04:08:36;6.50;;;3.53;;
297;SDS011;133;49.626;9.680;2022-09-21T04:11:13;8.67;;;3.80;;
297;SDS011;133;49.626;9.680;2022-09-21T04:13:40;11.43;;;3.80;;
297;SDS011;133;49.626;9.680;2022-09-21T04:16:06;5.70;;;3.90;;
297;SDS011;133;49.626;9.680;2022-09-21T04:18:33;3.30;;;3.13;;
297;SDS011;133;49.626;9.680;2022-09-21T04:20:59;7.53;;;3.67;;
297;SDS011;133;49.626;9.680;2022-09-21T04:23:25;15.27;;;4.23;;
297;SDS011;133;49.626;9.680;2022-09-21T04:25:52;16.40;;;3.70;;
297;SDS011;133;49.626;9.680;2022-09-21T04:28:19;60.50;;;6.10;;
297;SDS011;133;49.626;9.680;2022-09-21T04:30:45;3.77;;;3.57;;
297;SDS011;133;49.626;9.680;2022-09-21T04:33:11;3.20;;;3.00;;
297;SDS011;133;49.626;9.680;2022-09-21T04:35:38;13.70;;;4.00;;
297;SDS011;133;49.626;9.680;2022-09-21T04:38:03;12.93;;;3.80;;
297;SDS011;133;49.626;9.680;2022-09-21T04:40:29;5.07;;;3.10;;
297;SDS011;133;49.626;9.680;2022-09-21T04:42:55;6.57;;;3.53;;
297;SDS011;133;49.626;9.680;2022-09-21T04:45:21;3.80;;;3.50;;
297;SDS011;133;49.626;9.680;2022-09-21T04:47:47;49.27;;;4.77;;
297;SDS011;133;49.626;9.680;2022-09-21T04:50:13;3.13;;;2.83;;
297;SDS011;133;49.626;9.680;2022-09-21T04:52:40;4.93;;;2.97;;
297;SDS011;133;49.626;9.680;2022-09-21T04:55:06;4.90;;;3.17;;
297;SDS011;133;49.626;9.680;2022-09-21T04:57:32;4.87;;;3.40;;
297;SDS011;133;49.626;9.680;2022-09-21T04:59:59;32.67;;;4.23;;
297;SDS011;133;49.626;9.680;2022-09-21T05:02:25;9.03;;;3.57;;
297;SDS011;133;49.626;9.680;2022-09-21T05:04:51;8.67;;;2.87;;
297;SDS011;133;49.626;9.680;2022-09-21T05:07:16;12.90;;;3.60;;
297;SDS011;133;49.626;9.680;2022-09-21T05:09:42;23.73;;;3.63;;
297;SDS011;133;49.626;9.680;2022-09-21T05:12:26;17.53;;;3.67;;
297;SDS011;133;49.626;9.680;2022-09-21T05:14:52;10.50;;;4.47;;
297;SDS011;133;49.626;9.680;2022-09-21T05:17:19;10.40;;;4.00;;
297;SDS011;133;49.626;9.680;2022-09-21T05:19:47;46.17;;;4.70;;
297;SDS011;133;49.626;9.680;2022-09-21T05:22:13;3.70;;;2.77;;
297;SDS011;133;49.626;9.680;2022-09-21T05:24:38;10.43;;;3.20;;
297;SDS011;133;49.626;9.680;2022-09-21T05:27:05;3.00;;;2.80;;
297;SDS011;133;49.626;9.680;2022-09-21T05:29:30;5.50;;;2.83;;
297;SDS011;133;49.626;9.680;2022-09-21T05:37:09;25.27;;;4.13;;
297;SDS011;133;49.626;9.680;2022-09-21T05:39:54;3.53;;;3.33;;
297;SDS011;133;49.626;9.680;2022-09-21T05:42:20;6.53;;;3.30;;
297;SDS011;133;49.626;9.680;2022-09-21T05:44:46;3.17;;;2.97;;
297;SDS011;133;49.626;9.680;2022-09-21T05:47:36;38.47;;;3.97;;
297;SDS011;133;49.626;9.680;2022-09-21T05:56:15;5.30;;;3.07;;
297;SDS011;133;49.626;9.680;2022-09-21T06:01:35;2.87;;;2.67;;
297;SDS011;133;49.626;9.680;2022-09-21T06:04:08;3.50;;;2.70;;
297;SDS011;133;49.626;9.680;2022-09-21T06:06:36;3.63;;;2.63;;
297;SDS011;133;49.626;9.680;2022-09-21T06:09:02;3.47;;;2.30;;
297;SDS011;133;49.626;9.680;2022-09-21T06:11:28;5.40;;;2.77;;
297;SDS011;133;49.626;9.680;2022-09-21T06:13:54;8.33;;;3.07;;
297;SDS011;133;49.626;9.680;2022-09-21T06:16:19;14.77;;;3.47;;
297;SDS011;133;49.626;9.680;2022-09-21T06:18:45;4.17;;;3.20;;
297;SDS011;133;49.626;9.680;2022-09-21T06:21:11;14.63;;;3.20;;
297;SDS011;133;49.626;9.680;2022-09-21T06:23:36;21.07;;;3.63;;
297;SDS011;133;49.626;9.680;2022-09-21T06:26:02;6.37;;;3.20;;
297;SDS011;133;49.626;9.680;2022-09-21T06:28:28;3.10;;;2.90;;
297;SDS011;133;49.626;9.680;2022-09-21T06:30:54;3.87;;;2.87;;
297;SDS011;133;49.626;9.680;2022-09-21T06:33:21;7.43;;;3.10;;
297;SDS011;133;49.626;9.680;2022-09-21T06:35:51;7.20;;;3.20;;
297;SDS011;133;49.626;9.680;2022-09-21T06:38:18;95.50;;;7.20;;
297;SDS011;133;49.626;9.680;2022-09-21T06:40:44;61.70;;;5.60;;
297;SDS011;133;49.626;9.680;2022-09-21T06:43:09;29.33;;;4.30;;
297;SDS011;133;49.626;9.680;2022-09-21T06:45:35;34.17;;;5.10;;
297;SDS011;133;49.626;9.680;2022-09-21T06:48:00;12.20;;;3.73;;
297;SDS011;133;49.626;9.680;2022-09-21T06:50:26;3.73;;;3.50;;
297;SDS011;133;49.626;9.680;2022-09-21T06:52:52;14.53;;;4.07;;
297;SDS011;133;49.626;9.680;2022-09-21T06:55:18;7.30;;;3.30;;
297;SDS011;133;49.626;9.680;2022-09-21T06:57:44;4.20;;;3.93;;
297;SDS011;133;49.626;9.680;2022-09-21T07:00:10;17.67;;;3.83;;
297;SDS011;133;49.626;9.680;2022-09-21T07:02:37;6.40;;;3.93;;
297;SDS011;133;49.626;9.680;2022-09-21T07:05:06;17.60;;;4.70;;
297;SDS011;133;49.626;9.680;2022-09-21T07:07:32;10.67;;;4.07;;
297;SDS011;133;49.626;9.680;2022-09-21T07:09:57;16.93;;;4.27;;
297;SDS011;133;49.626;9.680;2022-09-21T07:12:24;7.33;;;3.73;;
297;SDS011;133;49.626;9.680;2022-09-21T07:14:51;5.17;;;4.13;;
297;SDS011;133;49.626;9.680;2022-09-21T07:17:17;4.60;;;4.10;;
297;SDS011;133;49.626;9.680;2022-09-21T07:19:43;4.83;;;4.30;;
297;SDS011;133;49.626;9.680;2022-09-21T07:22:08;14.33;;;5.60;;
297;SDS011;133;49.626;9.680;2022-09-21T07:24:34;4.70;;;4.40;;
297;SDS011;133;49.626;9.680;2022-09-21T07:27:00;6.83;;;5.17;;
297;SDS011;133;49.626;9.680;2022-09-21T07:29:25;5.10;;;4.00;;
297;SDS011;133;49.626;9.680;2022-09-21T07:31:51;4.10;;;3.90;;
297;SDS011;133;49.626;9.680;2022-09-21T07:34:16;4.50;;;3.80;;
297;SDS011;133;49.626;9.680;2022-09-21T07:36:42;4.33;;;4.03;;
297;SDS011;133;49.626;9.680;2022-09-21T07:39:08;6.13;;;4.03;;
297;SDS011;133;49.626;9.680;2022-09-21T07:41:34;4.67;;;4.20;;
297;SDS011;133;49.626;9.680;2022-09-21T07:44:01;4.80;;;4.03;;
297;SDS011;133;49.626;9.680;2022-09-21T07:46:27;15.97;;;5.20;;
297;SDS011;133;49.626;9.680;2022-09-21T07:48:53;6.90;;;4.97;;
297;SDS011;133;49.626;9.680;2022-09-21T07:51:19;12.30;;;4.90;;
297;SDS011;133;49.626;9.680;2022-09-21T07:53:45;7.60;;;5.17;;
297;SDS011;133;49.626;9.680;2022-09-21T07:56:12;5.50;;;5.23;;
297;SDS011;133;49.626;9.680;2022-09-21T07:58:39;6.60;;;4.83;;
297;SDS011;133;49.626;9.680;2022-09-21T08:01:24;16.80;;;5.80;;
297;SDS011;133;49.626;9.680;2022-09-21T08:03:51;5.27;;;4.13;;
297;SDS011;133;49.626;9.680;2022-09-21T08:06:18;4.37;;;4.10;;
297;SDS011;133;49.626;9.680;2022-09-21T08:08:45;6.57;;;4.83;;
297;SDS011;133;49.626;9.680;2022-09-21T08:11:15;4.40;;;4.10;;
297;SDS011;133;49.626;9.680;2022-09-21T08:13:42;8.87;;;4.70;;
297;SDS011;133;49.626;9.680;2022-09-21T08:16:08;8.67;;;4.57;;
297;SDS011;133;49.626;9.680;2022-09-21T08:18:37;5.53;;;5.00;;
297;SDS011;133;49.626;9.680;2022-09-21T08:21:04;5.10;;;4.80;;
297;SDS011;133;49.626;9.680;2022-09-21T08:23:30;5.80;;;4.50;;
297;SDS011;133;49.626;9.680;2022-09-21T08:25:57;5.07;;;3.80;;
297;SDS011;133;49.626;9.680;2022-09-21T08:28:27;4.77;;;4.50;;
297;SDS011;133;49.626;9.680;2022-09-21T08:30:57;4.30;;;4.00;;
297;SDS011;133;49.626;9.680;2022-09-21T08:33:27;4.90;;;4.63;;
297;SDS011;133;49.626;9.680;2022-09-21T08:35:53;5.00;;;4.70;;
297;SDS011;133;49.626;9.680;2022-09-21T08:38:19;6.07;;;4.93;;
297;SDS011;133;49.626;9.680;2022-09-21T08:40:45;9.00;;;5.47;;
297;SDS011;133;49.626;9.680;2022-09-21T08:43:15;5.77;;;5.53;;
297;SDS011;133;49.626;9.680;2022-09-21T08:45:51;7.70;;;5.17;;
297;SDS011;133;49.626;9.680;2022-09-21T08:50:44;4.53;;;4.20;;
297;SDS011;133;49.626;9.680;2022-09-21T08:53:18;5.27;;;4.80;;
297;SDS011;133;49.626;9.680;2022-09-21T08:55:49;5.00;;;4.70;;
297;SDS011;133;49.626;9.680;2022-09-21T09:03:28;6.10;;;5.80;;
297;SDS011;133;49.626;9.680;2022-09-21T09:06:13;5.47;;;5.10;;
297;SDS011;133;49.626;9.680;2022-09-21T09:09:01;5.00;;;4.80;;
297;SDS011;133;49.626;9.680;2022-09-21T09:11:56;5.77;;;5.47;;
297;SDS011;133;49.626;9.680;2022-09-21T09:14:28;5.20;;;4.97;;
297;SDS011;133;49.626;9.680;2022-09-21T09:17:20;5.87;;;4.50;;
297;SDS011;133;49.626;9.680;2022-09-21T09:19:58;6.40;;;6.00;;
297;SDS011;133;49.626;9.680;2022-09-21T09:22:32;5.50;;;5.23;;
297;SDS011;133;49.626;9.680;2022-09-21T09:25:03;5.03;;;4.73;;
297;SDS011;133;49.626;9.680;2022-09-21T09:30:04;6.00;;;4.60;;
297;SDS011;133;49.626;9.680;2022-09-21T09:32:42;5.40;;;4.80;;
297;SDS011;133;49.626;9.680;2022-09-21T09:37:49;9.23;;;6.07;;
297;SDS011;133;49.626;9.680;2022-09-21T09:40:25;6.93;;;6.03;;
297;SDS011;133;49.626;9.680;2022-09-21T09:43:28;6.37;;;5.07;;
297;SDS011;133;49.626;9.680;2022-09-21T09:51:05;5.07;;;4.43;;
297;SDS011;133;49.626;9.680;2022-09-21T09:53:36;4.73;;;4.43;;
297;SDS011;133;49.626;9.680;2022-09-21T09:56:02;6.03;;;5.30;;
297;SDS011;133;49.626;9.680;2022-09-21T09:58:39;8.67;;;6.03;;
297;SDS011;133;49.626;9.680;2022-09-21T10:04:24;6.27;;;5.10;;
297;SDS011;133;49.626;9.680;2022-09-21T10:06:50;4.67;;;4.37;;
297;SDS011;133;49.626;9.680;2022-09-21T10:09:17;6.30;;;5.50;;
297;SDS011;133;49.626;9.680;2022-09-21T10:11:56;6.83;;;5.67;;
297;SDS011;133;49.626;9.680;2022-09-21T10:14:50;7.23;;;5.50;;
297;SDS011;133;49.626;9.680;2022-09-21T10:17:18;6.10;;;5.60;;
297;SDS011;133;49.626;9.680;2022-09-21T10:19:44;5.30;;;5.00;;
297;SDS011;133;49.626;9.680;2022-09-21T10:22:17;6.10;;;5.40;;
297;SDS011;133;49.626;9.680;2022-09-21T10:24:50;5.90;;;5.60;;
297;SDS011;133;49.626;9.680;2022-09-21T10:27:25;5.90;;;4.87;;
297;SDS011;133;49.626;9.680;2022-09-21T10:29:52;7.17;;;5.10;;
297;SDS011;133;49.626;9.680;2022-09-21T10:32:23;4.80;;;4.40;;
297;SDS011;133;49.626;9.680;2022-09-21T10:35:32;6.43;;;4.60;;
297;SDS011;133;49.626;9.680;2022-09-21T10:37:40;7.67;;;4.90;;
297;SDS011;133;49.626;9.680;2022-09-21T10:40:40;5.13;;;4.83;;
297;SDS011;133;49.626;9.680;2022-09-21T10:43:02;5.17;;;4.97;;
297;SDS011;133;49.626;9.680;2022-09-21T10:45:32;5.17;;;4.40;;
297;SDS011;133;49.626;9.680;2022-09-21T10:50:36;5.10;;;3.93;;
297;SDS011;133;49.626;9.680;2022-09-21T10:58:28;5.83;;;3.27;;
297;SDS011;133;49.626;9.680;2022-09-21T11:00:55;2.90;;;2.70;;
297;SDS011;133;49.626;9.680;2022-09-21T11:09:19;2.63;;;2.30;;
297;SDS011;133;49.626;9.680;2022-09-21T11:12:01;2.90;;;2.77;;
297;SDS011;133;49.626;9.680;2022-09-21T11:18:07;2.57;;;2.30;;
297;SDS011;133;49.626;9.680;2022-09-21T11:20:58;2.30;;;2.17;;
297;SDS011;133;49.626;9.680;2022-09-21T11:26:16;1.90;;;1.80;;
297;SDS011;133;49.626;9.680;2022-09-21T11:34:35;2.23;;;2.10;;
297;SDS011;133;49.626;9.680;2022-09-21T11:46:15;3.93;;;2.60;;
297;SDS011;133;49.626;9.680;2022-09-21T11:54:14;3.30;;;2.23;;
297;SDS011;133;49.626;9.680;2022-09-21T11:56:57;2.40;;;2.20;;
297;SDS011;133;49.626;9.680;2022-09-21T11:59:40;2.40;;;2.23;;
297;SDS011;133;49.626;9.680;2022-09-21T12:02:25;2.80;;;2.50;;
297;SDS011;133;49.626;9.680;2022-09-21T12:07:48;2.40;;;2.20;;
297;SDS011;133;49.626;9.680;2022-09-21T12:13:32;2.57;;;2.10;;
297;SDS011;133;49.626;9.680;2022-09-21T12:22:45;2.70;;;2.10;;
297;SDS011;133;49.626;9.680;2022-09-21T12:30:13;4.20;;;2.33;;
297;SDS011;133;49.626;9.680;2022-09-21T12:38:08;1.87;;;1.77;;
297;SDS011;133;49.626;9.680;2022-09-21T12:40:46;2.13;;;2.00;;
297;SDS011;133;49.626;9.680;2022-09-21T12:43:56;3.97;;;1.90;;
297;SDS011;133;49.626;9.680;2022-09-21T12:47:08;2.47;;;2.27;;
297;SDS011;133;49.626;9.680;2022-09-21T12:49:40;2.33;;;1.80;;
297;SDS011;133;49.626;9.680;2022-09-21T12:52:12;2.93;;;1.77;;
297;SDS011;133;49.626;9.680;2022-09-21T12:57:57;1.97;;;1.87;;
297;SDS011;133;49.626;9.680;2022-09-21T13:00:27;2.40;;;1.70;;
297;SDS011;133;49.626;9.680;2022-09-21T13:03:06;1.73;;;1.63;;
297;SDS011;133;49.626;9.680;2022-09-21T13:08:09;3.83;;;1.70;;
297;SDS011;133;49.626;9.680;2022-09-21T13:13:16;2.70;;;1.87;;
297;SDS011;133;49.626;9.680;2022-09-21T13:15:53;2.13;;;1.97;;
297;SDS011;133;49.626;9.680;2022-09-21T13:21:19;2.57;;;1.80;;
297;SDS011;133;49.626;9.680;2022-09-21T13:26:35;2.50;;;2.10;;
297;SDS011;133;49.626;9.680;2022-09-21T13:31:52;2.17;;;1.80;;
297;SDS011;133;49.626;9.680;2022-09-21T13:34:23;1.90;;;1.80;;
297;SDS011;133;49.626;9.680;2022-09-21T13:39:42;2.37;;;1.80;;
297;SDS011;133;49.626;9.680;2022-09-21T13:47:42;1.80;;;1.70;;
297;SDS011;133;49.626;9.680;2022-09-21T13:50:15;1.73;;;1.67;;
297;SDS011;133;49.626;9.680;2022-09-21T13:53:17;1.83;;;1.73;;
297;SDS011;133;49.626;9.680;2022-09-21T13:55:49;2.23;;;2.03;;
297;SDS011;133;49.626;9.680;2022-09-21T13:58:19;2.00;;;1.90;;
297;SDS011;133;49.626;9.680;2022-09-21T14:03:20;1.90;;;1.80;;
297;SDS011;133;49.626;9.680;2022-09-21T14:05:52;2.07;;;1.77;;
297;SDS011;133;49.626;9.680;2022-09-21T14:08:26;1.83;;;1.73;;
297;SDS011;133;49.626;9.680;2022-09-21T14:11:01;2.13;;;1.77;;
297;SDS011;133;49.626;9.680;2022-09-21T14:13:43;3.00;;;2.10;;
297;SDS011;133;49.626;9.680;2022-09-21T14:16:48;2.20;;;2.00;;
297;SDS011;133;49.626;9.680;2022-09-21T14:24:34;3.00;;;1.90;;
297;SDS011;133;49.626;9.680;2022-09-21T14:30:00;3.20;;;2.27;;
297;SDS011;133;49.626;9.680;2022-09-21T14:32:28;2.20;;;2.00;;
297;SDS011;133;49.626;9.680;2022-09-21T14:35:00;2.30;;;1.87;;
297;SDS011;133;49.626;9.680;2022-09-21T14:37:38;2.40;;;2.20;;
297;SDS011;133;49.626;9.680;2022-09-21T14:40:20;1.80;;;1.70;;
297;SDS011;133;49.626;9.680;2022-09-21T14:42:50;2.53;;;2.33;;
297;SDS011;133;49.626;9.680;2022-09-21T14:45:18;3.23;;;2.40;;
297;SDS011;133;49.626;9.680;2022-09-21T14:47:55;3.03;;;2.50;;
297;SDS011;133;49.626;9.680;2022-09-21T14:50:46;2.40;;;2.20;;
297;SDS011;133;49.626;9.680;2022-09-21T14:58:37;5.33;;;2.30;;
297;SDS011;133;49.626;9.680;2022-09-21T15:12:55;2.43;;;2.20;;
297;SDS011;133;49.626;9.680;2022-09-21T15:15:30;3.00;;;2.20;;
297;SDS011;133;49.626;9.680;2022-09-21T15:18:11;2.20;;;2.00;;
297;SDS011;133;49.626;9.680;2022-09-21T15:20:44;2.30;;;2.10;;
297;SDS011;133;49.626;9.680;2022-09-21T15:23:18;2.37;;;2.07;;
297;SDS011;133;49.626;9.680;2022-09-21T15:25:51;2.43;;;2.20;;
297;SDS011;133;49.626;9.680;2022-09-21T15:28:49;2.53;;;2.33;;
297;SDS011;133;49.626;9.680;2022-09-21T15:31:16;2.50;;;2.13;;
297;SDS011;133;49.626;9.680;2022-09-21T15:33:42;2.40;;;2.20;;
297;SDS011;133;49.626;9.680;2022-09-21T15:36:11;2.33;;;2.13;;
297;SDS011;133;49.626;9.680;2022-09-21T15:38:46;2.43;;;2.20;;
297;SDS011;133;49.626;9.680;2022-09-21T15:41:17;3.50;;;2.13;;
297;SDS011;133;49.626;9.680;2022-09-21T15:44:13;3.83;;;2.20;;
297;SDS011;133;49.626;9.680;2022-09-21T15:46:45;2.77;;;2.10;;
297;SDS011;133;49.626;9.680;2022-09-21T15:49:15;2.40;;;2.20;;
297;SDS011;133;49.626;9.680;2022-09-21T15:51:46;2.00;;;1.90;;
297;SDS011;133;49.626;9.680;2022-09-21T15:56:45;3.10;;;2.17;;
297;SDS011;133;49.626;9.680;2022-09-21T15:59:13;2.20;;;2.00;;
297;SDS011;133;49.626;9.680;2022-09-21T16:01:45;2.23;;;2.07;;
297;SDS011;133;49.626;9.680;2022-09-21T16:04:15;3.63;;;2.13;;
297;SDS011;133;49.626;9.680;2022-09-21T16:06:44;1.90;;;1.80;;
297;SDS011;133;49.626;9.680;2022-09-21T16:11:48;2.37;;;2.17;;
297;SDS011;133;49.626;9.680;2022-09-21T16:14:14;2.20;;;2.00;;
297;SDS011;133;49.626;9.680;2022-09-21T16:22:15;2.00;;;1.90;;
297;SDS011;133;49.626;9.680;2022-09-21T16:24:59;2.00;;;1.90;;
297;SDS011;133;49.626;9.680;2022-09-21T16:27:26;2.13;;;1.97;;
297;SDS011;133;49.626;9.680;2022-09-21T16:29:54;2.00;;;1.90;;
297;SDS011;133;49.626;9.680;2022-09-21T16:32:28;2.00;;;1.90;;
297;SDS011;133;49.626;9.680;2022-09-21T16:37:49;2.97;;;1.83;;
297;SDS011;133;49.626;9.680;2022-09-21T16:40:15;2.90;;;2.10;;
297;SDS011;133;49.626;9.680;2022-09-21T16:42:42;2.40;;;2.20;;
297;SDS011;133;49.626;9.680;2022-09-21T16:47:55;3.20;;;2.00;;
297;SDS011;133;49.626;9.680;2022-09-21T16:50:23;2.20;;;2.00;;
297;SDS011;133;49.626;9.680;2022-09-21T16:52:49;2.33;;;1.90;;
297;SDS011;133;49.626;9.680;2022-09-21T16:55:16;1.73;;;1.70;;
297;SDS011;133;49.626;9.680;2022-09-21T16:57:45;2.00;;;1.90;;
297;SDS011;133;49.626;9.680;2022-09-21T17:00:13;2.07;;;1.93;;
297;SDS011;133;49.626;9.680;2022-09-21T17:02:44;1.97;;;1.87;;
297;SDS011;133;49.626;9.680;2022-09-21T17:05:10;2.60;;;2.07;;
297;SDS011;133;49.626;9.680;2022-09-21T17:07:47;2.23;;;2.00;;
297;SDS011;133;49.626;9.680;2022-09-21T17:10:25;3.73;;;2.13;;
297;SDS011;133;49.626;9.680;2022-09-21T17:12:54;2.00;;;1.90;;
297;SDS011;133;49.626;9.680;2022-09-21T17:15:21;5.43;;;2.13;;
297;SDS011;133;49.626;9.680;2022-09-21T17:17:47;1.80;;;1.70;;
297;SDS011;133;49.626;9.680;2022-09-21T17:20:30;3.33;;;2.10;;
297;SDS011;133;49.626;9.680;2022-09-21T17:22:58;2.00;;;1.90;;
297;SDS011;133;49.626;9.680;2022-09-21T17:25:25;2.77;;;2.00;;
297;SDS011;133;49.626;9.680;2022-09-21T17:27:52;1.90;;;1.80;;
297;SDS011;133;49.626;9.680;2022-09-21T17:30:17;2.93;;;2.07;;
297;SDS011;133;49.626;9.680;2022-09-21T17:32:45;2.50;;;2.30;;
297;SDS011;133;49.626;9.680;2022-09-21T17:37:41;2.90;;;2.27;;
297;SDS011;133;49.626;9.680;2022-09-21T17:40:07;2.00;;;1.90;;
297;SDS011;133;49.626;9.680;2022-09-21T17:42:37;3.50;;;2.20;;
297;SDS011;133;49.626;9.680;2022-09-21T17:47:38;2.40;;;2.20;;
297;SDS011;133;49.626;9.680;2022-09-21T17:52:36;2.37;;;2.17;;
297;SDS011;133;49.626;9.680;2022-09-21T17:55:21;3.30;;;2.10;;
297;SDS011;133;49.626;9.680;2022-09-21T18:00:22;2.00;;;1.90;;
297;SDS011;133;49.626;9.680;2022-09-21T18:02:51;2.30;;;2.10;;
297;SDS011;133;49.626;9.680;2022-09-21T18:05:25;4.70;;;2.67;;
297;SDS011;133;49.626;9.680;2022-09-21T18:07:53;3.20;;;2.80;;
297;SDS011;133;49.626;9.680;2022-09-21T18:10:19;2.40;;;2.20;;
297;SDS011;133;49.626;9.680;2022-09-21T18:18:18;5.47;;;2.50;;
297;SDS011;133;49.626;9.680;2022-09-21T18:21:22;2.47;;;2.10;;
297;SDS011;133;49.626;9.680;2022-09-21T18:26:31;2.40;;;2.20;;
297;SDS011;133;49.626;9.680;2022-09-21T18:28:57;2.63;;;2.43;;
297;SDS011;133;49.626;9.680;2022-09-21T18:39:48;3.10;;;2.87;;
297;SDS011;133;49.626;9.680;2022-09-21T18:42:38;3.60;;;2.70;;
297;SDS011;133;49.626;9.680;2022-09-21T18:50:34;2.33;;;2.13;;
297;SDS011;133;49.626;9.680;2022-09-21T18:53:27;2.80;;;2.60;;
297;SDS011;133;49.626;9.680;2022-09-21T18:55:59;2.83;;;2.63;;
297;SDS011;133;49.626;9.680;2022-09-21T18:58:25;5.13;;;2.80;;
297;SDS011;133;49.626;9.680;2022-09-21T19:00:51;2.80;;;2.67;;
297;SDS011;133;49.626;9.680;2022-09-21T19:03:17;4.30;;;4.00;;
297;SDS011;133;49.626;9.680;2022-09-21T19:08:26;3.97;;;2.80;;
297;SDS011;133;49.626;9.680;2022-09-21T19:10:56;2.80;;;2.60;;
297;SDS011;133;49.626;9.680;2022-09-21T19:13:51;2.60;;;2.40;;
297;SDS011;133;49.626;9.680;2022-09-21T19:16:43;4.30;;;3.93;;
297;SDS011;133;49.626;9.680;2022-09-21T19:24:37;5.13;;;4.17;;
297;SDS011;133;49.626;9.680;2022-09-21T19:30:08;5.07;;;3.80;;
297;SDS011;133;49.626;9.680;2022-09-21T19:32:44;3.80;;;3.60;;
297;SDS011;133;49.626;9.680;2022-09-21T19:35:21;3.33;;;2.87;;
297;SDS011;133;49.626;9.680;2022-09-21T19:38:01;3.67;;;2.90;;
297;SDS011;133;49.626;9.680;2022-09-21T19:40:29;2.80;;;2.60;;
297;SDS011;133;49.626;9.680;2022-09-21T19:48:51;2.97;;;2.77;;
297;SDS011;133;49.626;9.680;2022-09-21T19:54:01;3.50;;;2.80;;
297;SDS011;133;49.626;9.680;2022-09-21T19:56:52;4.57;;;2.93;;
297;SDS011;133;49.626;9.680;2022-09-21T19:59:36;3.20;;;3.00;;
297;SDS011;133;49.626;9.680;2022-09-21T20:02:12;3.20;;;2.90;;
297;SDS011;133;49.626;9.680;2022-09-21T20:04:41;6.73;;;4.73;;
297;SDS011;133;49.626;9.680;2022-09-21T20:12:39;3.97;;;2.90;;
297;SDS011;133;49.626;9.680;2022-09-21T20:17:47;3.37;;;3.20;;
297;SDS011;133;49.626;9.680;2022-09-21T20:20:22;3.30;;;3.10;;
297;SDS011;133;49.626;9.680;2022-09-21T20:22:50;3.53;;;3.10;;